Stations météo

réclame
Mon MeteoGroup
Karlsruhe/Baden-Baden, Allemagne (10722): Température de l'air & dewpoint: 18.01.2018 10:00:00 - 24.01.2018 10:00:00 (CET)Karlsruhe/Baden-Baden, Allemagne (10722): Vitesse du vent: 18.01.2018 10:00:00 - 24.01.2018 10:00:00 (CET)Karlsruhe/Baden-Baden, Allemagne (10722): Direction du vent: 18.01.2018 10:00:00 - 24.01.2018 10:00:00 (CET)Karlsruhe/Baden-Baden, Allemagne (10722): visibility: 18.01.2018 10:00:00 - 24.01.2018 10:00:00 (CET)
Date & Time tt [°C] td [°C] ff [km/h] ff [knt] dd vv [km]
24.01.2018 10:00:00 10,0 7,0 24 13 SW 10
24.01.2018 09:00:00 9,0 7,0 22 12 SW 10
24.01.2018 08:00:00 8,0 6,0 18 10 SSW 10
24.01.2018 07:00:00 9,0 6,0 21 11 SSW 10
24.01.2018 06:00:00 9,0 6,0 22 12 SSW 10
24.01.2018 05:00:00 9,0 6,0 22 12 SSW 10
24.01.2018 04:00:00 9,0 6,0 21 11 SW 10
24.01.2018 03:00:00 9,0 5,0 31 17 SSW 10
24.01.2018 02:00:00 9,0 4,0 29 16 SSW 10
24.01.2018 01:00:00 9,0 4,0 22 12 SW 10
24.01.2018 00:00:00 8,0 4,0 26 14 SSW 10
23.01.2018 23:00:00 8,0 4,0 22 12 SSW 10
23.01.2018 22:00:00 8,0 4,0 22 12 SSW 10
23.01.2018 21:00:00 7,0 3,0 16 9 SSW 10
23.01.2018 20:00:00 7,0 4,0 24 13 SSW 10
23.01.2018 19:00:00 8,0 5,0 24 13 S 10
23.01.2018 18:00:00 8,0 5,0 21 11 SSW 10
23.01.2018 17:00:00 8,0 6,0 21 11 SSW 10
23.01.2018 16:00:00 8,0 5,0 18 10 SSW 10
23.01.2018 15:00:00 9,0 5,0 21 11 SSW 10
23.01.2018 14:00:00 9,0 5,0 22 12 SSW 10
23.01.2018 13:00:00 8,0 5,0 21 11 SSW 10
23.01.2018 12:00:00 8,0 5,0 15 8 SSW 10
23.01.2018 11:00:00 7,0 4,0 9 5 SW 10
23.01.2018 10:00:00 6,0 4,0 13 7 SSW 10
23.01.2018 09:00:00 6,0 4,0 15 8 SSW 10
23.01.2018 08:00:00 6,0 4,0 13 7 SSW 10
23.01.2018 07:00:00 6,0 4,0 13 7 SSW 10
23.01.2018 06:00:00 6,0 4,0 9 5 SSW 10
23.01.2018 05:00:00 6,0 4,0 9 5 SW 10
23.01.2018 04:00:00 7,0 4,0 11 6 WSW 10
23.01.2018 03:00:00 7,0 5,0 11 6 WSW 10
23.01.2018 02:00:00 7,0 5,0 11 6 SW 10
23.01.2018 01:00:00 7,0 5,0 9 5 SW 10
23.01.2018 00:00:00 7,0 6,0 9 5 SW 10
22.01.2018 23:00:00 8,0 5,0 8 4 WSW 10
22.01.2018 22:00:00 8,0 6,0 5 3 W 10
22.01.2018 21:00:00 9,0 8,0 11 6 W 8
22.01.2018 20:00:00 8,0 8,0 8 4 SW 7
22.01.2018 19:00:00 9,0 9,0 9 5 SW 4,2
22.01.2018 18:00:00 9,0 8,0 4 2 - 7
22.01.2018 17:00:00 9,0 9,0 4 2 NNE 7
22.01.2018 16:00:00 9,0 9,0 4 2 N 6
22.01.2018 15:00:00 10,0 9,0 5 3 SW 6
22.01.2018 14:00:00 11,0 10,0 16 9 SSW 8
22.01.2018 13:00:00 10,0 10,0 18 10 SSW 10
22.01.2018 12:00:00 10,0 9,0 31 17 SSW 10
22.01.2018 11:00:00 10,0 9,0 22 12 SSW 9
22.01.2018 10:00:00 10,0 9,0 22 12 SSW 9
22.01.2018 09:00:00 9,0 8,0 24 13 SSW 9
22.01.2018 08:00:00 9,0 8,0 26 14 S 10
22.01.2018 07:00:00 8,0 7,0 15 8 SSW 10
22.01.2018 06:00:00 5,0 5,0 4 2 - 4,5
22.01.2018 05:00:00 2,0 2,0 4 2 - 4,4
22.01.2018 04:00:00 2,0 1,0 4 2 - 5
22.01.2018 03:00:00 2,0 1,0 4 2 N 4,8
22.01.2018 02:00:00 2,0 1,0 9 5 ENE 10
22.01.2018 01:00:00 3,0 1,0 4 2 - 9
22.01.2018 00:00:00 3,0 1,0 9 5 SW 7
21.01.2018 23:00:00 4,0 0,0 13 7 S 10
21.01.2018 22:00:00 2,0 0,0 8 4 SSW 10
21.01.2018 21:00:00 2,0 0,0 4 2 S 10
21.01.2018 20:00:00 3,0 0,0 5 3 SSE 10
21.01.2018 19:00:00 3,0 1,0 5 3 SSE 10
21.01.2018 18:00:00 3,0 0,0 8 4 S 10
21.01.2018 17:00:00 4,0 1,0 5 3 S 10
21.01.2018 16:00:00 5,0 0,0 2 1 - 10
21.01.2018 15:00:00 5,0 -1,0 0 0 N 10
21.01.2018 14:00:00 5,0 0,0 8 4 SW 10
21.01.2018 13:00:00 5,0 1,0 11 6 SSW 10
21.01.2018 12:00:00 4,0 0,0 9 5 SSW 10
21.01.2018 11:00:00 5,0 0,0 9 5 SW 10
21.01.2018 10:00:00 3,0 0,0 9 5 SSW 10
21.01.2018 09:00:00 2,0 0,0 11 6 SSW 10
21.01.2018 08:00:00 3,0 0,0 9 5 SW 10
21.01.2018 07:00:00 3,0 1,0 8 4 W 10
21.01.2018 06:00:00 3,0 2,0 8 4 WSW 10
21.01.2018 05:00:00 4,0 2,0 13 7 WNW 10
21.01.2018 04:00:00 4,0 3,0 5 3 W 10
21.01.2018 03:00:00 4,0 3,0 4 2 - 10
21.01.2018 02:00:00 4,0 3,0 5 3 WSW 10
21.01.2018 01:00:00 4,0 3,0 5 3 W 10
21.01.2018 00:00:00 4,0 4,0 5 3 WSW 8
20.01.2018 23:00:00 4,0 4,0 4 2 - 5
20.01.2018 22:00:00 4,0 4,0 4 2 SSW 6
20.01.2018 21:00:00 4,0 4,0 4 2 - 10
20.01.2018 20:00:00 4,0 4,0 2 1 NNW 7
20.01.2018 19:00:00 4,0 4,0 8 4 SW 7
20.01.2018 18:00:00 4,0 4,0 15 8 SSW 7
20.01.2018 17:00:00 5,0 3,0 9 5 S 7
20.01.2018 16:00:00 5,0 3,0 22 12 SSW 9
20.01.2018 15:00:00 5,0 3,0 29 16 SSW 8
20.01.2018 14:00:00 5,0 3,0 26 14 SSW 10
20.01.2018 13:00:00 5,0 3,0 26 14 S 10
20.01.2018 12:00:00 5,0 3,0 26 14 SSW 9
20.01.2018 11:00:00 5,0 3,0 26 14 SSW 10
20.01.2018 10:00:00 4,0 3,0 22 12 SSW 8
20.01.2018 09:00:00 3,0 2,0 18 10 SSW 10
20.01.2018 08:00:00 - - - - - -
20.01.2018 07:00:00 3,0 2,0 15 8 SSW 10
20.01.2018 06:00:00 2,0 2,0 22 12 SSW 6
20.01.2018 05:00:00 3,0 1,0 26 14 SSW 10
20.01.2018 04:00:00 - - - - - -
20.01.2018 03:00:00 - - - - - -
20.01.2018 02:00:00 - - - - - -
20.01.2018 01:00:00 2,0 1,0 16 9 S 10
20.01.2018 00:00:00 1,0 1,0 13 7 SSW 10
19.01.2018 23:00:00 3,0 2,0 11 6 WSW 10
19.01.2018 22:00:00 4,0 2,0 15 8 SW 10
19.01.2018 21:00:00 4,0 3,0 13 7 SSW 10
19.01.2018 20:00:00 3,0 3,0 8 4 SW 9
19.01.2018 19:00:00 3,0 3,0 8 4 WNW 7
19.01.2018 18:00:00 4,0 3,0 13 7 S 8
19.01.2018 17:00:00 3,0 3,0 8 4 SW 7
19.01.2018 16:00:00 2,0 2,0 4 2 - 8
19.01.2018 15:00:00 5,0 3,0 15 8 SSW 7
19.01.2018 14:00:00 6,0 2,0 21 11 S 10
19.01.2018 13:00:00 5,0 2,0 16 9 SW 9
19.01.2018 12:00:00 6,0 1,0 22 12 SW 10
19.01.2018 11:00:00 6,0 1,0 22 12 SW 10
19.01.2018 10:00:00 5,0 1,0 22 12 SSW 10
19.01.2018 09:00:00 4,0 1,0 18 10 SSW 10
19.01.2018 08:00:00 4,0 1,0 15 8 SW 10
19.01.2018 07:00:00 4,0 1,0 16 9 WSW 10
19.01.2018 06:00:00 5,0 2,0 18 10 WSW 10
19.01.2018 05:00:00 5,0 2,0 15 8 WSW 10
19.01.2018 04:00:00 - - - - - -
19.01.2018 03:00:00 - - - - - -
19.01.2018 02:00:00 - - - - - -
19.01.2018 01:00:00 - - - - - -
19.01.2018 00:00:00 - - - - - -
18.01.2018 23:00:00 7,0 5,0 21 11 S 10
18.01.2018 22:00:00 7,0 5,0 16 9 SSW 10
18.01.2018 21:00:00 6,0 5,0 21 11 S 10
18.01.2018 20:00:00 7,0 4,0 24 13 SW 10
18.01.2018 19:00:00 8,0 5,0 21 11 SW 10
18.01.2018 18:00:00 8,0 6,0 26 14 SW 10
18.01.2018 17:00:00 9,0 7,0 24 13 WSW 9
18.01.2018 16:00:00 9,0 7,0 16 9 WSW 6
18.01.2018 15:00:00 9,0 6,0 39 21 SSW 10
18.01.2018 14:00:00 8,0 5,0 46 25 SSW 10
18.01.2018 13:00:00 8,0 5,0 35 19 SSW 8
18.01.2018 12:00:00 7,0 4,0 44 24 SSW 10
18.01.2018 11:00:00 7,0 3,0 55 30 SSW 10
18.01.2018 10:00:00 6,0 3,0 57 31 SSW 7

tt = Température de l'air
td = dewpoint
ff = Vitesse du vent
dd = Direction du vent
vv = visibility

stations d'obs. à proximité